createdAt,value
2023-04-18T00:00:02.058Z,1011.36
2023-04-18T00:01:01.969Z,1011.35
2023-04-18T00:02:02.147Z,1011.35
2023-04-18T00:03:04.165Z,1011.33
2023-04-18T00:04:02.178Z,1011.33
2023-04-18T00:05:02.078Z,1011.32
2023-04-18T00:06:01.952Z,1011.31
2023-04-18T00:07:01.935Z,1011.30
2023-04-18T00:08:01.948Z,1011.29
2023-04-18T00:09:01.927Z,1011.28
2023-04-18T00:10:01.891Z,1011.27
2023-04-18T00:11:01.870Z,1011.26
2023-04-18T00:12:01.902Z,1011.26
2023-04-18T00:13:01.876Z,1011.24
2023-04-18T00:14:01.880Z,1011.24
2023-04-18T00:15:01.842Z,1011.22
2023-04-18T00:16:01.858Z,1011.21
2023-04-18T00:17:01.920Z,1011.20
2023-04-18T00:18:01.855Z,1011.20
2023-04-18T00:19:01.790Z,1011.19
2023-04-18T00:20:01.830Z,1011.17
2023-04-18T00:21:01.784Z,1011.18
2023-04-18T00:22:01.772Z,1011.17
2023-04-18T00:23:01.756Z,1011.17
2023-04-18T00:24:01.765Z,1011.17
2023-04-18T00:25:01.729Z,1011.18
2023-04-18T00:26:01.766Z,1011.19
2023-04-18T00:27:01.751Z,1011.19
2023-04-18T00:28:01.704Z,1011.21
2023-04-18T00:29:01.687Z,1011.21
2023-04-18T00:30:01.687Z,1011.22
2023-04-18T00:31:01.727Z,1011.22
2023-04-18T00:32:01.760Z,1011.24
2023-04-18T00:33:01.692Z,1011.25
2023-04-18T00:34:01.649Z,1011.25
2023-04-18T00:35:01.629Z,1011.24
2023-04-18T00:36:01.621Z,1011.22
2023-04-18T00:37:01.615Z,1011.23
2023-04-18T00:38:01.666Z,1011.26
2023-04-18T00:39:01.578Z,1011.25
2023-04-18T00:40:01.577Z,1011.24
2023-04-18T00:41:01.567Z,1011.24
2023-04-18T00:42:01.570Z,1011.23
2023-04-18T00:43:01.546Z,1011.23
2023-04-18T00:44:01.586Z,1011.22
2023-04-18T00:45:01.609Z,1011.23
2023-04-18T00:46:01.633Z,1011.22
2023-04-18T00:47:01.521Z,1011.22
2023-04-18T00:48:01.560Z,1011.19
2023-04-18T00:49:01.488Z,1011.20
2023-04-18T00:50:01.499Z,1011.20
2023-04-18T00:51:01.454Z,1011.20
2023-04-18T00:52:01.436Z,1011.21
2023-04-18T00:53:01.451Z,1011.21
2023-04-18T00:54:01.437Z,1011.22
2023-04-18T00:55:01.448Z,1011.22
2023-04-18T00:56:01.432Z,1011.21
2023-04-18T00:57:01.384Z,1011.19
2023-04-18T00:58:01.373Z,1011.19
2023-04-18T00:59:01.410Z,1011.19
2023-04-18T01:00:01.368Z,1011.19
2023-04-18T01:01:01.370Z,1011.19
2023-04-18T01:02:01.476Z,1011.19
2023-04-18T01:03:01.519Z,1011.19
2023-04-18T01:04:01.474Z,1011.19
2023-04-18T01:05:01.317Z,1011.19
2023-04-18T01:06:01.294Z,1011.19
2023-04-18T01:07:01.302Z,1011.19
2023-04-18T01:08:01.477Z,1011.19
2023-04-18T01:09:01.290Z,1011.20
2023-04-18T01:10:01.256Z,1011.19
2023-04-18T01:11:01.258Z,1011.19
2023-04-18T01:12:01.231Z,1011.19
2023-04-18T01:13:01.238Z,1011.19
2023-04-18T01:14:01.228Z,1011.18
2023-04-18T01:15:01.195Z,1011.17
2023-04-18T01:16:01.259Z,1011.16
2023-04-18T01:17:01.172Z,1011.15
2023-04-18T01:18:01.217Z,1011.14
2023-04-18T01:19:01.163Z,1011.13
2023-04-18T01:20:01.148Z,1011.12
2023-04-18T01:21:01.159Z,1011.11
2023-04-18T01:22:01.158Z,1011.10
2023-04-18T01:23:01.137Z,1011.10
2023-04-18T01:24:01.122Z,1011.09
2023-04-18T01:25:01.089Z,1011.08
2023-04-18T01:26:01.098Z,1011.08
2023-04-18T01:27:01.072Z,1011.07
2023-04-18T01:28:01.054Z,1011.08
2023-04-18T01:29:01.061Z,1011.08
2023-04-18T01:30:01.034Z,1011.06
2023-04-18T06:00:59.416Z,1011.57
2023-04-18T06:02:00.484Z,1011.55
2023-04-18T06:03:00.541Z,1011.52
2023-04-18T06:04:00.661Z,1011.54
2023-04-18T06:05:00.558Z,1011.54
2023-04-18T06:06:00.495Z,1011.56
2023-04-18T06:07:00.382Z,1011.55
2023-04-18T06:08:00.368Z,1011.58
2023-04-18T06:09:00.346Z,1011.60
2023-04-18T06:10:00.336Z,1011.58
2023-04-18T06:11:00.293Z,1011.60
2023-04-18T06:12:00.311Z,1011.67
2023-04-18T06:13:00.277Z,1011.65
2023-04-18T06:14:00.271Z,1011.69
2023-04-18T06:15:00.290Z,1011.71
2023-04-18T06:16:00.343Z,1011.74
2023-04-18T06:17:00.244Z,1011.73
2023-04-18T06:18:00.336Z,1011.72
2023-04-18T06:19:01.400Z,1011.73
2023-04-18T06:20:00.219Z,1011.73
2023-04-18T06:21:00.217Z,1011.76
2023-04-18T06:22:00.192Z,1011.75
2023-04-18T06:23:00.194Z,1011.78
2023-04-18T06:24:00.185Z,1011.78
2023-04-18T06:25:00.151Z,1011.80
2023-04-18T06:26:00.159Z,1011.83
2023-04-18T06:27:00.182Z,1011.83
2023-04-18T06:28:00.122Z,1011.84
2023-04-18T06:29:00.163Z,1011.85
2023-04-18T06:30:00.182Z,1011.88
2023-04-18T06:31:00.104Z,1011.87
2023-04-18T06:32:00.162Z,1011.89
2023-04-18T06:33:00.162Z,1011.89
2023-04-18T06:34:00.100Z,1011.89
2023-04-18T06:35:00.059Z,1011.92
2023-04-18T06:36:00.051Z,1011.91
2023-04-18T06:37:00.021Z,1011.93
2023-04-18T06:38:00.047Z,1011.93
2023-04-18T06:39:00.044Z,1011.94
2023-04-18T06:39:59.998Z,1011.97
2023-04-18T06:40:59.974Z,1011.99
2023-04-18T06:41:59.999Z,1011.97
2023-04-18T06:42:59.954Z,1011.99
2023-04-18T06:44:04.092Z,1012.01
2023-04-18T06:45:00.147Z,1012.01
2023-04-18T06:45:59.967Z,1012.00
2023-04-18T06:46:59.907Z,1012.03
2023-04-18T06:47:59.979Z,1012.04
2023-04-18T06:48:59.944Z,1012.01
2023-04-18T06:49:59.905Z,1012.03
2023-04-18T06:50:59.916Z,1012.02
2023-04-18T06:51:59.874Z,1012.02
2023-04-18T06:52:59.881Z,1012.03
2023-04-18T06:53:59.874Z,1012.03
2023-04-18T06:54:59.827Z,1012.04
2023-04-18T06:55:59.832Z,1012.05
2023-04-18T06:56:59.824Z,1012.09
2023-04-18T06:57:59.828Z,1012.06
2023-04-18T06:58:59.791Z,1012.05
2023-04-18T06:59:59.792Z,1012.05
2023-04-18T07:00:59.849Z,1012.07
2023-04-18T07:01:59.814Z,1012.09
2023-04-18T07:02:59.839Z,1012.06
2023-04-18T07:03:59.851Z,1012.05
2023-04-18T07:04:59.759Z,1012.08
2023-04-18T07:05:59.784Z,1012.09
2023-04-18T07:06:59.711Z,1012.06
2023-04-18T07:07:59.708Z,1012.11
2023-04-18T07:08:59.694Z,1012.09
2023-04-18T07:09:59.711Z,1012.13
2023-04-18T07:10:59.645Z,1012.08
2023-04-18T07:11:59.689Z,1012.10
2023-04-18T07:12:59.635Z,1012.12
2023-04-18T07:13:59.649Z,1012.11
2023-04-18T07:14:59.635Z,1012.11
2023-04-18T07:15:59.628Z,1012.09
2023-04-18T07:16:59.608Z,1012.08
2023-04-18T07:17:59.663Z,1012.10
2023-04-18T07:18:59.574Z,1012.06
2023-04-18T07:19:59.592Z,1012.03
2023-04-18T07:20:59.550Z,1012.04
2023-04-18T07:21:59.634Z,1012.00
2023-04-18T07:22:59.604Z,1012.05
2023-04-18T07:23:59.547Z,1012.06
2023-04-18T07:24:59.514Z,1012.05
2023-04-18T07:25:59.498Z,1012.07
2023-04-18T07:26:59.509Z,1012.06
2023-04-18T07:27:59.474Z,1012.04
2023-04-18T07:28:59.513Z,1012.06
2023-04-18T07:29:59.461Z,1012.06
2023-04-18T07:30:59.497Z,1012.10
2023-04-18T07:31:59.432Z,1012.08
2023-04-18T07:32:59.481Z,1012.08
2023-04-18T07:33:59.423Z,1012.05
2023-04-18T07:34:59.455Z,1012.05
2023-04-18T07:35:59.379Z,1012.07
2023-04-18T07:36:59.403Z,1012.07
2023-04-18T07:37:59.360Z,1012.07
2023-04-18T07:38:59.380Z,1012.07
2023-04-18T07:39:59.354Z,1012.10
2023-04-18T07:40:59.379Z,1012.08
2023-04-18T07:41:59.328Z,1012.10
2023-04-18T07:42:59.370Z,1012.12
2023-04-18T07:43:59.303Z,1012.11
2023-04-18T07:44:59.307Z,1012.12
2023-04-18T07:45:59.308Z,1012.12
2023-04-18T07:46:59.295Z,1012.12
2023-04-18T07:47:59.312Z,1012.13
2023-04-18T07:48:59.332Z,1012.14
2023-04-18T07:49:59.247Z,1012.14
2023-04-18T07:50:59.325Z,1012.16
2023-04-18T07:51:59.223Z,1012.16
2023-04-18T07:52:59.231Z,1012.16
2023-04-18T07:53:59.204Z,1012.20
2023-04-18T07:54:59.294Z,1012.22
2023-04-18T07:55:59.177Z,1012.22
2023-04-18T07:56:59.193Z,1012.22
2023-04-18T07:57:59.158Z,1012.23
2023-04-18T07:58:59.183Z,1012.23
2023-04-18T07:59:59.138Z,1012.19
2023-04-18T08:00:59.195Z,1012.18
2023-04-18T08:01:59.167Z,1012.19
2023-04-18T08:02:59.317Z,1012.20
2023-04-18T08:03:59.186Z,1012.21
2023-04-18T08:04:59.147Z,1012.19
2023-04-18T08:05:59.095Z,1012.21
2023-04-18T08:07:00.106Z,1012.20
2023-04-18T08:07:59.058Z,1012.21
2023-04-18T08:08:59.090Z,1012.21
2023-04-18T08:09:59.075Z,1012.23
2023-04-18T08:10:59.054Z,1012.22
2023-04-18T08:11:59.023Z,1012.22
2023-04-18T08:12:59.035Z,1012.22
2023-04-18T08:13:59.092Z,1012.23
2023-04-18T08:14:58.999Z,1012.22
2023-04-18T08:15:59.025Z,1012.21
2023-04-18T08:16:59.011Z,1012.23
2023-04-18T08:17:58.982Z,1012.22
2023-04-18T08:18:58.971Z,1012.23
2023-04-18T08:19:58.965Z,1012.25
2023-04-18T08:20:58.944Z,1012.25
2023-04-18T08:21:58.919Z,1012.25
2023-04-18T08:23:07.533Z,1012.26
2023-04-18T08:23:58.889Z,1012.27
2023-04-18T08:25:04.938Z,1012.28
2023-04-18T08:25:58.880Z,1012.28
2023-04-18T08:26:58.865Z,1012.30
2023-04-18T08:27:58.846Z,1012.29
2023-04-18T08:28:58.837Z,1012.28
2023-04-18T08:29:58.855Z,1012.25
2023-04-18T08:30:58.856Z,1012.25
2023-04-18T08:31:58.835Z,1012.26
2023-04-18T08:32:58.840Z,1012.27
2023-04-18T08:33:58.795Z,1012.25
2023-04-18T08:34:58.845Z,1012.26
2023-04-18T08:35:58.757Z,1012.26
2023-04-18T08:36:58.782Z,1012.26
2023-04-18T08:37:58.757Z,1012.25
2023-04-18T08:38:58.770Z,1012.27
2023-04-18T08:39:58.797Z,1012.25
2023-04-18T08:40:58.729Z,1012.24
2023-04-18T08:41:58.858Z,1012.27
2023-04-18T08:42:58.696Z,1012.27
2023-04-18T08:43:58.671Z,1012.27
2023-04-18T08:44:58.715Z,1012.27
2023-04-18T08:45:58.672Z,1012.26
2023-04-18T08:46:58.658Z,1012.28
2023-04-18T08:47:58.644Z,1012.27
2023-04-18T08:48:58.650Z,1012.28
2023-04-18T08:49:58.681Z,1012.25
2023-04-18T08:50:58.688Z,1012.23
2023-04-18T08:51:58.581Z,1012.25
2023-04-18T08:52:58.600Z,1012.24
2023-04-18T08:53:58.568Z,1012.23
2023-04-18T08:54:58.577Z,1012.27
2023-04-18T08:55:58.565Z,1012.26
2023-04-18T08:56:58.572Z,1012.30
2023-04-18T08:57:58.531Z,1012.28
2023-04-18T08:58:58.520Z,1012.30
2023-04-18T08:59:58.501Z,1012.32
2023-04-18T09:00:58.558Z,1012.34
2023-04-18T09:01:58.537Z,1012.32
2023-04-18T09:02:58.709Z,1012.30
2023-04-18T09:03:58.508Z,1012.29
2023-04-18T09:04:58.473Z,1012.24
2023-04-18T09:05:58.431Z,1012.23
2023-04-18T09:06:58.454Z,1012.22
2023-04-18T09:07:58.428Z,1012.19
2023-04-18T09:08:58.432Z,1012.18
2023-04-18T09:09:58.395Z,1012.16
2023-04-18T09:10:58.397Z,1012.16
2023-04-18T09:11:58.367Z,1012.15
2023-04-18T09:12:58.376Z,1012.15
2023-04-18T09:13:58.348Z,1012.13
2023-04-18T09:14:58.367Z,1012.14
2023-04-18T09:15:58.333Z,1012.15
2023-04-18T09:16:58.358Z,1012.14
2023-04-18T09:17:58.457Z,1012.13
2023-04-18T09:18:58.319Z,1012.14
2023-04-18T09:19:58.290Z,1012.14
2023-04-18T09:20:58.295Z,1012.17
2023-04-18T09:21:58.276Z,1012.13
2023-04-18T09:22:58.276Z,1012.12
2023-04-18T09:23:58.250Z,1012.12
2023-04-18T09:24:58.263Z,1012.10
2023-04-18T09:25:58.245Z,1012.11
2023-04-18T09:26:58.241Z,1012.11
2023-04-18T09:27:58.194Z,1012.10
2023-04-18T09:28:58.195Z,1012.09
2023-04-18T09:29:58.201Z,1012.07
2023-04-18T09:30:58.245Z,1012.05
2023-04-18T09:31:58.173Z,1012.00
2023-04-18T09:32:58.263Z,1012.03
2023-04-18T09:33:58.142Z,1012.05
2023-04-18T09:34:58.386Z,1012.02
2023-04-18T09:35:58.133Z,1012.02
2023-04-18T09:36:58.192Z,1011.98
2023-04-18T09:37:58.086Z,1012.00
2023-04-18T09:38:58.128Z,1012.04
2023-04-18T09:39:58.080Z,1012.03
2023-04-18T09:40:58.084Z,1012.05
2023-04-18T09:41:58.052Z,1012.10
2023-04-18T09:42:58.052Z,1012.05
2023-04-18T09:43:58.019Z,1012.03
2023-04-18T09:44:58.045Z,1012.01
2023-04-18T09:45:58.072Z,1012.01
2023-04-18T09:46:58.022Z,1011.99
2023-04-18T09:47:58.030Z,1011.98
2023-04-18T09:48:58.017Z,1012.01
2023-04-18T09:49:57.969Z,1012.00
2023-04-18T09:50:58.018Z,1012.01
2023-04-18T09:51:57.958Z,1012.02
2023-04-18T09:52:57.943Z,1011.96
2023-04-18T09:53:57.930Z,1011.98
2023-04-18T09:54:57.926Z,1011.96
2023-04-18T09:55:57.989Z,1011.93
2023-04-18T09:56:57.942Z,1011.93
2023-04-18T09:57:57.877Z,1011.93
2023-04-18T09:58:57.892Z,1011.91
2023-04-18T09:59:57.868Z,1011.92
2023-04-18T10:00:57.865Z,1011.88
2023-04-18T10:01:57.961Z,1011.89
2023-04-18T10:02:57.970Z,1011.89
2023-04-18T10:03:57.895Z,1011.89
2023-04-18T10:04:57.912Z,1011.91
2023-04-18T10:05:58.060Z,1011.92
2023-04-18T10:06:57.788Z,1011.92
2023-04-18T10:07:57.782Z,1011.92
2023-04-18T10:08:57.801Z,1011.96
2023-04-18T10:09:57.783Z,1011.92
2023-04-18T10:10:57.765Z,1011.93
2023-04-18T10:11:57.739Z,1011.92
2023-04-18T10:12:57.746Z,1011.92
2023-04-18T10:13:57.721Z,1011.91
2023-04-18T10:14:57.901Z,1011.90
2023-04-18T10:15:57.732Z,1011.86
2023-04-18T10:16:57.681Z,1011.88
2023-04-18T10:18:04.321Z,1011.88
2023-04-18T10:18:57.669Z,1011.86
2023-04-18T10:19:57.636Z,1011.80
2023-04-18T10:20:57.634Z,1011.81
2023-04-18T10:21:57.631Z,1011.82
2023-04-18T10:22:57.647Z,1011.78
2023-04-18T10:23:57.655Z,1011.76
2023-04-18T10:24:57.639Z,1011.82
2023-04-18T10:25:57.575Z,1011.83
2023-04-18T10:26:57.574Z,1011.82
2023-04-18T10:27:57.581Z,1011.81
2023-04-18T10:28:57.556Z,1011.80
2023-04-18T10:29:57.554Z,1011.76
2023-04-18T10:30:57.558Z,1011.71
2023-04-18T10:31:57.557Z,1011.78
2023-04-18T10:32:57.568Z,1011.82
2023-04-18T10:34:57.499Z,1011.77
2023-04-18T10:35:57.488Z,1011.76
2023-04-18T10:36:57.503Z,1011.75
2023-04-18T10:37:57.445Z,1011.76
2023-04-18T10:38:57.456Z,1011.73
2023-04-18T10:39:57.432Z,1011.73
2023-04-18T10:40:57.439Z,1011.76
2023-04-18T10:41:57.428Z,1011.73
2023-04-18T10:42:57.433Z,1011.70
2023-04-18T10:43:57.387Z,1011.69
2023-04-18T10:44:57.400Z,1011.68
2023-04-18T10:45:57.385Z,1011.68
2023-04-18T10:46:57.431Z,1011.68
2023-04-18T10:47:57.386Z,1011.65
2023-04-18T10:48:57.370Z,1011.66
2023-04-18T10:49:57.368Z,1011.68
2023-04-18T10:50:57.357Z,1011.62
2023-04-18T10:51:57.300Z,1011.63
2023-04-18T10:52:57.370Z,1011.62
2023-04-18T10:53:57.339Z,1011.61
2023-04-18T10:54:58.985Z,1011.55
2023-04-18T10:55:57.259Z,1011.54
2023-04-18T10:56:57.275Z,1011.54
2023-04-18T10:57:57.236Z,1011.50
2023-04-18T10:58:57.267Z,1011.49
2023-04-18T10:59:57.287Z,1011.49
2023-04-18T11:00:57.250Z,1011.45
2023-04-18T11:01:57.332Z,1011.48
2023-04-18T11:02:57.334Z,1011.49
2023-04-18T11:03:57.294Z,1011.47
2023-04-18T11:04:57.184Z,1011.47
2023-04-18T11:05:57.161Z,1011.47
2023-04-18T11:06:57.172Z,1011.46
2023-04-18T11:07:57.140Z,1011.44
2023-04-18T11:08:57.147Z,1011.43
2023-04-18T11:09:57.123Z,1011.39
2023-04-18T11:10:57.195Z,1011.39
2023-04-18T11:11:57.098Z,1011.36
2023-04-18T11:12:57.088Z,1011.32
2023-04-18T11:13:57.076Z,1011.31
2023-04-18T11:14:57.072Z,1011.30
2023-04-18T11:15:57.053Z,1011.31
2023-04-18T11:16:57.078Z,1011.35
2023-04-18T11:17:57.068Z,1011.37
2023-04-18T11:18:57.038Z,1011.39
2023-04-18T11:19:57.004Z,1011.37
2023-04-18T11:20:57.014Z,1011.31
2023-04-18T11:21:56.986Z,1011.30
2023-04-18T11:22:56.981Z,1011.31
2023-04-18T11:23:56.982Z,1011.27
2023-04-18T11:24:56.971Z,1011.27
2023-04-18T11:25:56.933Z,1011.29
2023-04-18T11:26:56.980Z,1011.31
2023-04-18T11:27:57.002Z,1011.28
2023-04-18T11:28:56.948Z,1011.23
2023-04-18T11:29:56.905Z,1011.22
2023-04-18T11:30:56.908Z,1011.19
2023-04-18T11:31:58.469Z,1011.22
2023-04-18T11:32:56.955Z,1011.17
2023-04-18T11:33:56.894Z,1011.16
2023-04-18T11:34:56.854Z,1011.17
2023-04-18T11:35:56.840Z,1011.16
2023-04-18T11:36:56.839Z,1011.14
2023-04-18T11:37:56.801Z,1011.13
2023-04-18T11:38:56.838Z,1011.12
2023-04-18T11:39:56.825Z,1011.10
2023-04-18T11:40:56.823Z,1011.09
2023-04-18T11:41:56.790Z,1011.10
2023-04-18T11:42:56.763Z,1011.14
2023-04-18T11:43:56.774Z,1011.11
2023-04-18T11:44:56.754Z,1011.13
2023-04-18T11:45:56.782Z,1011.12
2023-04-18T11:46:56.711Z,1011.13
2023-04-18T11:47:56.762Z,1011.14
2023-04-18T11:48:56.694Z,1011.14
2023-04-18T11:49:57.269Z,1011.12
2023-04-18T11:50:56.714Z,1011.17
2023-04-18T11:51:56.713Z,1011.17
2023-04-18T11:52:56.653Z,1011.14
2023-04-18T11:53:56.649Z,1011.16
2023-04-18T11:54:56.634Z,1011.17
2023-04-18T11:55:56.659Z,1011.20
2023-04-18T11:56:56.649Z,1011.17
2023-04-18T11:57:56.619Z,1011.19
2023-04-18T11:58:56.582Z,1011.17
2023-04-18T11:59:56.605Z,1011.22
2023-04-18T12:00:56.565Z,1011.17
2023-04-18T12:01:58.845Z,1011.17
2023-04-18T12:02:56.648Z,1011.21
2023-04-18T12:03:56.779Z,1011.19
2023-04-18T12:04:56.905Z,1011.20
2023-04-18T12:05:56.619Z,1011.20
2023-04-18T12:06:56.502Z,1011.24
2023-04-18T12:07:56.516Z,1011.21
2023-04-18T12:08:56.522Z,1011.23
2023-04-18T12:09:56.482Z,1011.24
2023-04-18T12:10:56.471Z,1011.21
2023-04-18T12:11:56.493Z,1011.20
2023-04-18T12:12:56.435Z,1011.19
2023-04-18T12:13:56.470Z,1011.20
2023-04-18T12:14:56.456Z,1011.17
2023-04-18T12:15:56.470Z,1011.18
2023-04-18T12:16:56.392Z,1011.16
2023-04-18T12:17:56.445Z,1011.18
2023-04-18T12:18:56.409Z,1011.19
2023-04-18T12:19:56.380Z,1011.20
2023-04-18T12:20:56.347Z,1011.14
2023-04-18T12:21:56.356Z,1011.12
2023-04-18T12:22:56.336Z,1011.15
2023-04-18T12:23:56.346Z,1011.13
2023-04-18T12:24:56.336Z,1011.16
2023-04-18T12:25:56.334Z,1011.08
2023-04-18T12:26:56.310Z,1011.11
2023-04-18T12:27:56.306Z,1011.13
2023-04-18T12:28:56.276Z,1011.09
2023-04-18T12:29:56.299Z,1011.05
2023-04-18T12:30:56.285Z,1011.09
2023-04-18T12:31:56.310Z,1011.07
2023-04-18T12:32:56.254Z,1011.09
2023-04-18T12:33:56.223Z,1011.08
2023-04-18T12:34:56.202Z,1011.07
2023-04-18T12:35:56.208Z,1011.09
2023-04-18T12:36:56.202Z,1011.10
2023-04-18T12:37:56.187Z,1011.13
2023-04-18T12:38:56.185Z,1011.12
2023-04-18T12:39:56.158Z,1011.10
2023-04-18T12:40:56.134Z,1011.11
2023-04-18T12:41:56.139Z,1011.10
2023-04-18T12:42:56.148Z,1011.16
2023-04-18T12:43:56.117Z,1011.13
2023-04-18T12:44:56.086Z,1011.15
2023-04-18T12:45:56.095Z,1011.17
2023-04-18T12:46:56.084Z,1011.19
2023-04-18T12:47:56.143Z,1011.19
2023-04-18T12:48:56.072Z,1011.17
2023-04-18T12:49:56.054Z,1011.19
2023-04-18T12:50:56.021Z,1011.17
2023-04-18T12:51:56.038Z,1011.18
2023-04-18T12:52:56.004Z,1011.15
2023-04-18T12:53:56.032Z,1011.18
2023-04-18T12:54:55.997Z,1011.15
2023-04-18T12:55:56.001Z,1011.18
2023-04-18T12:56:55.953Z,1011.19
2023-04-18T12:57:55.969Z,1011.18
2023-04-18T12:58:55.936Z,1011.17
2023-04-18T12:59:55.949Z,1011.21
2023-04-18T13:00:55.996Z,1011.17
2023-04-18T13:01:56.046Z,1011.17
2023-04-18T13:02:56.085Z,1011.18
2023-04-18T13:04:08.298Z,1011.20
2023-04-18T13:04:55.903Z,1011.13
2023-04-18T13:05:55.879Z,1011.14
2023-04-18T13:06:55.877Z,1011.16
2023-04-18T13:08:08.655Z,1011.15
2023-04-18T13:08:55.843Z,1011.16
2023-04-18T13:09:55.846Z,1011.16
2023-04-18T13:10:55.827Z,1011.18
2023-04-18T13:11:55.831Z,1011.20
2023-04-18T13:12:55.813Z,1011.20
2023-04-18T13:13:55.803Z,1011.20
2023-04-18T13:14:55.775Z,1011.23
2023-04-18T13:15:55.775Z,1011.18
2023-04-18T13:16:55.802Z,1011.19
2023-04-18T13:17:55.814Z,1011.24
2023-04-18T13:18:55.750Z,1011.22
2023-04-18T13:19:55.748Z,1011.23
2023-04-18T13:20:55.725Z,1011.24
2023-04-18T13:21:55.739Z,1011.21
2023-04-18T13:22:55.708Z,1011.22
2023-04-18T13:23:55.710Z,1011.22
2023-04-18T13:24:55.700Z,1011.23
2023-04-18T13:25:55.685Z,1011.21
2023-04-18T13:26:55.659Z,1011.24
2023-04-18T13:27:55.662Z,1011.22
2023-04-18T13:28:55.646Z,1011.22
2023-04-18T13:29:55.627Z,1011.20
2023-04-18T13:30:55.616Z,1011.24
2023-04-18T13:31:55.675Z,1011.23
2023-04-18T13:32:55.642Z,1011.22
2023-04-18T13:33:55.697Z,1011.24
2023-04-18T13:34:55.581Z,1011.20
2023-04-18T13:35:55.585Z,1011.22
2023-04-18T13:36:56.369Z,1011.24
2023-04-18T13:37:55.548Z,1011.23
2023-04-18T13:38:55.520Z,1011.21
2023-04-18T13:39:55.532Z,1011.23
2023-04-18T13:41:08.558Z,1011.22
2023-04-18T13:41:55.497Z,1011.19
2023-04-18T13:42:55.496Z,1011.20
2023-04-18T13:43:55.563Z,1011.21
2023-04-18T13:44:55.463Z,1011.19
2023-04-18T13:45:55.477Z,1011.18
2023-04-18T13:46:55.433Z,1011.18
2023-04-18T13:47:55.460Z,1011.19
2023-04-18T13:48:55.431Z,1011.15
2023-04-18T13:49:55.420Z,1011.16
2023-04-18T13:50:55.385Z,1011.16
2023-04-18T13:51:55.407Z,1011.17
2023-04-18T13:52:55.387Z,1011.13
2023-04-18T13:53:55.374Z,1011.15
2023-04-18T13:54:55.371Z,1011.15
2023-04-18T13:55:55.352Z,1011.15
2023-04-18T13:56:55.343Z,1011.15
2023-04-18T13:57:55.366Z,1011.15
2023-04-18T13:58:55.302Z,1011.14
2023-04-18T13:59:55.338Z,1011.14
2023-04-18T14:00:55.329Z,1011.13
2023-04-18T14:01:55.369Z,1011.15
2023-04-18T14:02:55.437Z,1011.15
2023-04-18T14:03:55.499Z,1011.08
2023-04-18T14:04:55.483Z,1011.12
2023-04-18T14:05:55.263Z,1011.16
2023-04-18T14:06:55.227Z,1011.12
2023-04-18T14:07:55.229Z,1011.13
2023-04-18T14:08:55.231Z,1011.13
2023-04-18T14:09:55.191Z,1011.12
2023-04-18T14:10:55.166Z,1011.12
2023-04-18T14:11:55.196Z,1011.14
2023-04-18T14:12:55.171Z,1011.10
2023-04-18T14:13:55.171Z,1011.08
2023-04-18T14:14:55.176Z,1011.07
2023-04-18T14:15:55.149Z,1011.11
2023-04-18T14:16:55.122Z,1011.09
2023-04-18T14:17:55.193Z,1011.12
2023-04-18T14:18:55.094Z,1011.06
2023-04-18T14:19:55.103Z,1011.09
2023-04-18T14:20:55.100Z,1011.10
2023-04-18T14:21:55.115Z,1011.07
2023-04-18T14:22:55.039Z,1011.06
2023-04-18T14:23:55.061Z,1011.08
2023-04-18T14:24:55.034Z,1011.08
2023-04-18T14:25:55.022Z,1011.12
2023-04-18T14:26:55.056Z,1011.11
2023-04-18T14:27:56.417Z,1011.08
2023-04-18T14:28:54.999Z,1011.06
2023-04-18T14:29:55.015Z,1011.09
2023-04-18T14:30:54.974Z,1011.13
2023-04-18T14:31:54.953Z,1011.02
2023-04-18T14:32:54.974Z,1011.09
2023-04-18T14:33:54.942Z,1011.10
2023-04-18T14:34:54.921Z,1011.14
2023-04-18T14:35:54.929Z,1011.09
2023-04-18T14:36:54.912Z,1011.15
2023-04-18T14:37:54.894Z,1011.10
2023-04-18T14:38:54.895Z,1011.10
2023-04-18T14:39:54.900Z,1011.07
2023-04-18T14:40:54.870Z,1011.13
2023-04-18T14:41:54.882Z,1011.11
2023-04-18T14:42:54.836Z,1011.10
2023-04-18T14:43:54.845Z,1011.11
2023-04-18T14:44:54.836Z,1011.12
2023-04-18T14:45:54.813Z,1011.11
2023-04-18T14:46:54.835Z,1011.12
2023-04-18T14:47:54.841Z,1011.07
2023-04-18T14:48:54.768Z,1011.11
2023-04-18T14:49:54.775Z,1011.13
2023-04-18T14:50:54.755Z,1011.10
2023-04-18T14:51:54.746Z,1011.12
2023-04-18T14:52:54.740Z,1011.09
2023-04-18T14:53:54.762Z,1011.09
2023-04-18T14:54:54.700Z,1011.06
2023-04-18T14:55:54.702Z,1011.06
2023-04-18T14:56:54.726Z,1011.07
2023-04-18T14:57:54.681Z,1011.05
2023-04-18T14:58:54.670Z,1011.05
2023-04-18T14:59:54.676Z,1010.98
2023-04-18T15:00:54.641Z,1011.04
2023-04-18T15:01:54.724Z,1011.01
2023-04-18T15:02:54.936Z,1011.00
2023-04-18T15:03:54.797Z,1010.99
2023-04-18T15:04:54.672Z,1011.01
2023-04-18T15:05:54.639Z,1010.99
2023-04-18T15:06:54.557Z,1011.05
2023-04-18T15:07:54.574Z,1010.95
2023-04-18T15:08:54.569Z,1010.97
2023-04-18T15:09:54.551Z,1010.96
2023-04-18T15:10:54.553Z,1010.96
2023-04-18T15:11:54.548Z,1010.93
2023-04-18T15:12:54.553Z,1010.94
2023-04-18T15:13:54.541Z,1010.95
2023-04-18T15:14:54.515Z,1010.95
2023-04-18T15:15:54.572Z,1011.00
2023-04-18T15:16:54.567Z,1010.95
2023-04-18T15:17:54.523Z,1010.92
2023-04-18T15:18:54.438Z,1010.90
2023-04-18T15:19:54.452Z,1010.95
2023-04-18T15:20:54.442Z,1010.94
2023-04-18T15:21:54.428Z,1010.95
2023-04-18T15:22:54.434Z,1010.96
2023-04-18T15:23:54.425Z,1010.95
2023-04-18T15:24:54.427Z,1010.98
2023-04-18T15:25:54.555Z,1010.91
2023-04-18T15:26:54.389Z,1010.94
2023-04-18T15:27:54.377Z,1010.93
2023-04-18T15:28:54.367Z,1010.92
2023-04-18T15:29:54.353Z,1010.99
2023-04-18T15:30:54.311Z,1010.91
2023-04-18T15:31:54.417Z,1010.91
2023-04-18T15:32:54.333Z,1010.87
2023-04-18T15:33:54.300Z,1010.89
2023-04-18T15:34:54.287Z,1010.85
2023-04-18T15:35:54.296Z,1010.89
2023-04-18T15:36:54.260Z,1010.85
2023-04-18T15:37:54.263Z,1010.86
2023-04-18T15:38:54.249Z,1010.86
2023-04-18T15:39:54.231Z,1010.88
2023-04-18T15:40:54.225Z,1010.89
2023-04-18T15:41:54.244Z,1010.89
2023-04-18T15:42:54.204Z,1010.89
2023-04-18T15:43:54.239Z,1010.90
2023-04-18T15:44:54.165Z,1010.92
2023-04-18T15:45:54.221Z,1010.88
2023-04-18T15:46:54.172Z,1010.91
2023-04-18T15:47:54.220Z,1010.89
2023-04-18T15:48:54.151Z,1010.91
2023-04-18T15:49:54.141Z,1010.95
2023-04-18T15:50:54.109Z,1010.94
2023-04-18T15:51:54.119Z,1010.93
2023-04-18T15:52:54.094Z,1010.94
2023-04-18T15:53:54.097Z,1010.97
2023-04-18T15:54:54.059Z,1010.99
2023-04-18T15:55:54.072Z,1011.04
2023-04-18T15:56:54.075Z,1011.10
2023-04-18T15:57:54.033Z,1010.98
2023-04-18T15:58:54.059Z,1010.99
2023-04-18T15:59:54.050Z,1011.05
2023-04-18T16:00:54.096Z,1011.07
2023-04-18T16:01:54.082Z,1011.03
2023-04-18T16:02:54.180Z,1011.09
2023-04-18T16:04:00.020Z,1011.09
2023-04-18T16:04:54.624Z,1011.08
2023-04-18T16:06:00.042Z,1011.11
2023-04-18T16:06:59.951Z,1011.14
2023-04-18T16:07:53.923Z,1011.14
2023-04-18T16:08:53.907Z,1011.21
2023-04-18T16:09:53.905Z,1011.16
2023-04-18T16:10:53.895Z,1011.20
2023-04-18T16:11:53.906Z,1011.28
2023-04-18T16:12:53.871Z,1011.21
2023-04-18T16:13:53.877Z,1011.23
2023-04-18T16:14:53.850Z,1011.21
2023-04-18T16:15:53.895Z,1011.27
2023-04-18T16:16:53.849Z,1011.22
2023-04-18T16:17:53.935Z,1011.17
2023-04-18T16:18:53.812Z,1011.22
2023-04-18T16:19:53.791Z,1011.24
2023-04-18T16:20:53.806Z,1011.24
2023-04-18T16:21:53.760Z,1011.26
2023-04-18T16:22:53.788Z,1011.26
2023-04-18T16:23:53.775Z,1011.29
2023-04-18T16:24:53.757Z,1011.37
2023-04-18T16:25:53.718Z,1011.33
2023-04-18T16:26:53.736Z,1011.40
2023-04-18T16:27:53.719Z,1011.33
2023-04-18T16:28:53.700Z,1011.34
2023-04-18T16:29:53.738Z,1011.33
2023-04-18T16:30:55.627Z,1011.33
2023-04-18T16:31:53.711Z,1011.32
2023-04-18T16:32:53.710Z,1011.35
2023-04-18T16:33:53.685Z,1011.37
2023-04-18T16:34:53.644Z,1011.35
2023-04-18T16:35:53.647Z,1011.41